sensor_id;sensor_type;location;lat;lon;timestamp;temperature;humidity
2721;DHT22;1368;49.484;11.112;2022-08-11T00:00:11;18.10;83.50
2721;DHT22;1368;49.484;11.112;2022-08-11T00:02:50;18.10;83.50
2721;DHT22;1368;49.484;11.112;2022-08-11T00:05:18;18.00;84.00
2721;DHT22;1368;49.484;11.112;2022-08-11T00:07:53;17.90;84.60
2721;DHT22;1368;49.484;11.112;2022-08-11T00:10:22;18.00;85.70
2721;DHT22;1368;49.484;11.112;2022-08-11T00:13:04;17.80;85.80
2721;DHT22;1368;49.484;11.112;2022-08-11T00:15:41;17.80;86.20
2721;DHT22;1368;49.484;11.112;2022-08-11T00:18:09;17.80;86.60
2721;DHT22;1368;49.484;11.112;2022-08-11T00:20:39;17.80;87.00
2721;DHT22;1368;49.484;11.112;2022-08-11T00:23:17;17.80;87.30
2721;DHT22;1368;49.484;11.112;2022-08-11T00:25:46;17.80;87.30
2721;DHT22;1368;49.484;11.112;2022-08-11T00:28:34;17.70;87.40
2721;DHT22;1368;49.484;11.112;2022-08-11T00:31:03;17.70;88.10
2721;DHT22;1368;49.484;11.112;2022-08-11T00:33:43;17.70;88.40
2721;DHT22;1368;49.484;11.112;2022-08-11T00:36:13;18.00;89.50
2721;DHT22;1368;49.484;11.112;2022-08-11T00:38:41;17.50;89.70
2721;DHT22;1368;49.484;11.112;2022-08-11T00:46:56;17.40;90.50
2721;DHT22;1368;49.484;11.112;2022-08-11T00:49:42;17.50;90.70
2721;DHT22;1368;49.484;11.112;2022-08-11T00:55:06;17.60;90.60
2721;DHT22;1368;49.484;11.112;2022-08-11T01:00:32;17.30;91.20
2721;DHT22;1368;49.484;11.112;2022-08-11T01:25:53;17.40;92.30
2721;DHT22;1368;49.484;11.112;2022-08-11T01:34:41;17.00;93.50
2721;DHT22;1368;49.484;11.112;2022-08-11T01:37:38;16.90;93.70
2721;DHT22;1368;49.484;11.112;2022-08-11T01:46:20;17.00;94.30
2721;DHT22;1368;49.484;11.112;2022-08-11T01:49:14;16.90;94.60
2721;DHT22;1368;49.484;11.112;2022-08-11T01:54:34;16.70;95.40
2721;DHT22;1368;49.484;11.112;2022-08-11T02:00:17;16.80;95.70
2721;DHT22;1368;49.484;11.112;2022-08-11T02:10:44;16.60;96.60
2721;DHT22;1368;49.484;11.112;2022-08-11T02:22:34;16.50;97.40
2721;DHT22;1368;49.484;11.112;2022-08-11T02:25:48;16.40;97.60
2721;DHT22;1368;49.484;11.112;2022-08-11T02:33:44;16.40;98.10
2721;DHT22;1368;49.484;11.112;2022-08-11T02:36:35;16.30;98.60
2721;DHT22;1368;49.484;11.112;2022-08-11T02:39:08;16.40;98.50
2721;DHT22;1368;49.484;11.112;2022-08-11T02:41:51;16.90;98.50
2721;DHT22;1368;49.484;11.112;2022-08-11T02:47:34;16.50;98.60
2721;DHT22;1368;49.484;11.112;2022-08-11T02:50:04;16.50;98.60
2721;DHT22;1368;49.484;11.112;2022-08-11T02:53:02;16.50;98.70
2721;DHT22;1368;49.484;11.112;2022-08-11T02:58:35;16.50;98.70
2721;DHT22;1368;49.484;11.112;2022-08-11T03:01:20;16.60;98.70
2721;DHT22;1368;49.484;11.112;2022-08-11T03:04:17;16.60;98.70
2721;DHT22;1368;49.484;11.112;2022-08-11T03:07:06;17.30;98.90
2721;DHT22;1368;49.484;11.112;2022-08-11T03:09:53;16.70;98.40
2721;DHT22;1368;49.484;11.112;2022-08-11T03:12:35;16.90;98.40
2721;DHT22;1368;49.484;11.112;2022-08-11T03:15:30;16.80;98.30
2721;DHT22;1368;49.484;11.112;2022-08-11T03:18:40;16.60;98.60
2721;DHT22;1368;49.484;11.112;2022-08-11T03:21:20;16.60;98.70
2721;DHT22;1368;49.484;11.112;2022-08-11T03:23:55;16.60;98.90
2721;DHT22;1368;49.484;11.112;2022-08-11T03:32:01;16.60;99.10
2721;DHT22;1368;49.484;11.112;2022-08-11T03:34:32;16.60;98.90
2721;DHT22;1368;49.484;11.112;2022-08-11T03:43:51;16.50;99.30
2721;DHT22;1368;49.484;11.112;2022-08-11T03:46:07;16.50;99.50
2721;DHT22;1368;49.484;11.112;2022-08-11T03:49:08;16.50;99.50
2721;DHT22;1368;49.484;11.112;2022-08-11T03:51:54;16.50;99.50
2721;DHT22;1368;49.484;11.112;2022-08-11T03:54:40;16.60;99.40
2721;DHT22;1368;49.484;11.112;2022-08-11T04:07:44;16.40;99.90
2721;DHT22;1368;49.484;11.112;2022-08-11T04:13:53;16.20;99.90
2721;DHT22;1368;49.484;11.112;2022-08-11T04:22:40;16.20;99.90
2721;DHT22;1368;49.484;11.112;2022-08-11T04:25:28;16.20;99.90
2721;DHT22;1368;49.484;11.112;2022-08-11T04:28:29;16.30;99.90
2721;DHT22;1368;49.484;11.112;2022-08-11T04:31:37;16.40;99.90
2721;DHT22;1368;49.484;11.112;2022-08-11T04:37:30;16.50;99.90
2721;DHT22;1368;49.484;11.112;2022-08-11T04:51:43;16.60;99.90
2721;DHT22;1368;49.484;11.112;2022-08-11T04:57:52;16.70;99.90
2721;DHT22;1368;49.484;11.112;2022-08-11T05:04:38;18.10;98.80
2721;DHT22;1368;49.484;11.112;2022-08-11T05:13:08;20.00;94.70
2721;DHT22;1368;49.484;11.112;2022-08-11T05:16:03;20.40;93.60
2721;DHT22;1368;49.484;11.112;2022-08-11T05:18:53;20.90;92.60
2721;DHT22;1368;49.484;11.112;2022-08-11T05:21:40;21.40;91.60
2721;DHT22;1368;49.484;11.112;2022-08-11T05:24:43;21.80;90.60
2721;DHT22;1368;49.484;11.112;2022-08-11T05:27:37;22.20;89.70
2721;DHT22;1368;49.484;11.112;2022-08-11T05:30:28;22.60;87.80
2721;DHT22;1368;49.484;11.112;2022-08-11T05:33:48;22.80;86.40
2721;DHT22;1368;49.484;11.112;2022-08-11T05:36:54;23.30;84.70
2721;DHT22;1368;49.484;11.112;2022-08-11T05:39:24;23.60;82.80
2721;DHT22;1368;49.484;11.112;2022-08-11T05:42:09;24.10;81.00
2721;DHT22;1368;49.484;11.112;2022-08-11T05:44:58;24.30;79.70
2721;DHT22;1368;49.484;11.112;2022-08-11T05:47:47;24.20;79.60
2721;DHT22;1368;49.484;11.112;2022-08-11T05:50:32;24.30;78.90
2721;DHT22;1368;49.484;11.112;2022-08-11T05:53:17;24.30;78.60
2721;DHT22;1368;49.484;11.112;2022-08-11T05:56:04;24.20;78.80
2721;DHT22;1368;49.484;11.112;2022-08-11T05:58:51;24.60;77.50
2721;DHT22;1368;49.484;11.112;2022-08-11T06:01:27;24.60;77.10
2721;DHT22;1368;49.484;11.112;2022-08-11T06:03:56;24.70;76.60
2721;DHT22;1368;49.484;11.112;2022-08-11T06:06:54;24.70;76.70
2721;DHT22;1368;49.484;11.112;2022-08-11T06:09:26;25.10;75.50
2721;DHT22;1368;49.484;11.112;2022-08-11T06:11:55;25.50;74.10
2721;DHT22;1368;49.484;11.112;2022-08-11T06:14:23;25.80;73.80
2721;DHT22;1368;49.484;11.112;2022-08-11T06:16:50;26.40;72.40
2721;DHT22;1368;49.484;11.112;2022-08-11T06:19:19;26.90;70.00
2721;DHT22;1368;49.484;11.112;2022-08-11T06:21:48;26.50;69.50
2721;DHT22;1368;49.484;11.112;2022-08-11T06:24:16;25.90;70.40
2721;DHT22;1368;49.484;11.112;2022-08-11T06:26:50;25.90;71.20
2721;DHT22;1368;49.484;11.112;2022-08-11T06:29:17;26.30;70.20
2721;DHT22;1368;49.484;11.112;2022-08-11T06:31:56;26.80;68.50
2721;DHT22;1368;49.484;11.112;2022-08-11T06:37:18;27.30;67.40
2721;DHT22;1368;49.484;11.112;2022-08-11T06:39:50;26.80;67.40
2721;DHT22;1368;49.484;11.112;2022-08-11T06:42:53;26.90;67.90
2721;DHT22;1368;49.484;11.112;2022-08-11T06:47:56;27.00;67.60
2721;DHT22;1368;49.484;11.112;2022-08-11T06:50:25;27.50;66.10
2721;DHT22;1368;49.484;11.112;2022-08-11T06:53:10;27.30;66.20
2721;DHT22;1368;49.484;11.112;2022-08-11T06:55:40;27.70;65.50
2721;DHT22;1368;49.484;11.112;2022-08-11T06:58:34;27.70;64.70
2721;DHT22;1368;49.484;11.112;2022-08-11T07:01:39;27.40;65.30
2721;DHT22;1368;49.484;11.112;2022-08-11T07:04:12;27.30;65.80
2721;DHT22;1368;49.484;11.112;2022-08-11T07:06:49;27.40;65.40
2721;DHT22;1368;49.484;11.112;2022-08-11T07:12:49;28.20;63.80
2721;DHT22;1368;49.484;11.112;2022-08-11T07:15:37;28.90;62.10
2721;DHT22;1368;49.484;11.112;2022-08-11T07:18:19;29.00;61.60
2721;DHT22;1368;49.484;11.112;2022-08-11T07:21:22;29.20;60.90
2721;DHT22;1368;49.484;11.112;2022-08-11T07:24:13;29.00;61.20
2721;DHT22;1368;49.484;11.112;2022-08-11T07:26:59;29.30;59.40
2721;DHT22;1368;49.484;11.112;2022-08-11T07:29:46;29.30;60.10
2721;DHT22;1368;49.484;11.112;2022-08-11T07:32:19;29.50;59.40
2721;DHT22;1368;49.484;11.112;2022-08-11T07:34:50;29.60;58.80
2721;DHT22;1368;49.484;11.112;2022-08-11T07:37:20;29.70;58.70
2721;DHT22;1368;49.484;11.112;2022-08-11T07:39:48;30.00;57.90
2721;DHT22;1368;49.484;11.112;2022-08-11T07:42:18;29.60;58.00
2721;DHT22;1368;49.484;11.112;2022-08-11T07:44:46;29.30;58.60
2721;DHT22;1368;49.484;11.112;2022-08-11T07:47:30;29.50;58.10
2721;DHT22;1368;49.484;11.112;2022-08-11T07:50:16;29.80;57.60
2721;DHT22;1368;49.484;11.112;2022-08-11T07:53:01;29.40;57.70
2721;DHT22;1368;49.484;11.112;2022-08-11T07:55:28;29.60;57.50
2721;DHT22;1368;49.484;11.112;2022-08-11T07:57:57;29.60;57.40
2721;DHT22;1368;49.484;11.112;2022-08-11T08:00:45;29.70;56.80
2721;DHT22;1368;49.484;11.112;2022-08-11T08:03:30;30.00;56.70
2721;DHT22;1368;49.484;11.112;2022-08-11T08:06:15;29.70;56.60
2721;DHT22;1368;49.484;11.112;2022-08-11T08:09:01;29.40;57.30
2721;DHT22;1368;49.484;11.112;2022-08-11T08:11:45;29.80;57.10
2721;DHT22;1368;49.484;11.112;2022-08-11T08:14:31;30.30;56.10
2721;DHT22;1368;49.484;11.112;2022-08-11T08:17:15;31.00;55.70
2721;DHT22;1368;49.484;11.112;2022-08-11T08:20:00;31.20;54.80
2721;DHT22;1368;49.484;11.112;2022-08-11T08:22:28;31.00;54.70
2721;DHT22;1368;49.484;11.112;2022-08-11T08:24:55;30.40;54.40
2721;DHT22;1368;49.484;11.112;2022-08-11T08:27:21;30.00;55.10
2721;DHT22;1368;49.484;11.112;2022-08-11T08:29:50;29.60;56.20
2721;DHT22;1368;49.484;11.112;2022-08-11T08:32:38;30.10;54.80
2721;DHT22;1368;49.484;11.112;2022-08-11T08:35:06;30.50;54.60
2721;DHT22;1368;49.484;11.112;2022-08-11T08:37:32;30.90;53.70
2721;DHT22;1368;49.484;11.112;2022-08-11T08:39:58;31.00;52.60
2721;DHT22;1368;49.484;11.112;2022-08-11T08:42:29;31.10;52.90
2721;DHT22;1368;49.484;11.112;2022-08-11T08:45:04;31.00;52.80
2721;DHT22;1368;49.484;11.112;2022-08-11T08:47:34;30.70;52.20
2721;DHT22;1368;49.484;11.112;2022-08-11T08:50:11;30.80;52.60
2721;DHT22;1368;49.484;11.112;2022-08-11T08:52:41;30.60;52.90
2721;DHT22;1368;49.484;11.112;2022-08-11T08:55:10;29.90;53.70
2721;DHT22;1368;49.484;11.112;2022-08-11T08:57:38;29.70;54.10
2721;DHT22;1368;49.484;11.112;2022-08-11T09:00:06;30.20;53.70
2721;DHT22;1368;49.484;11.112;2022-08-11T09:02:32;30.50;52.40
2721;DHT22;1368;49.484;11.112;2022-08-11T09:04:59;30.70;52.00
2721;DHT22;1368;49.484;11.112;2022-08-11T09:07:25;29.90;51.70
2721;DHT22;1368;49.484;11.112;2022-08-11T09:09:53;29.10;52.70
2721;DHT22;1368;49.484;11.112;2022-08-11T09:12:28;29.00;53.50
2721;DHT22;1368;49.484;11.112;2022-08-11T09:14:56;29.00;54.20
2721;DHT22;1368;49.484;11.112;2022-08-11T09:17:33;29.50;53.00
2721;DHT22;1368;49.484;11.112;2022-08-11T09:20:08;29.30;53.10
2721;DHT22;1368;49.484;11.112;2022-08-11T09:22:38;29.20;52.40
2721;DHT22;1368;49.484;11.112;2022-08-11T09:25:26;28.80;53.80
2721;DHT22;1368;49.484;11.112;2022-08-11T09:28:12;28.90;53.90
2721;DHT22;1368;49.484;11.112;2022-08-11T09:30:48;28.90;53.90
2721;DHT22;1368;49.484;11.112;2022-08-11T09:33:18;29.00;54.00
2721;DHT22;1368;49.484;11.112;2022-08-11T09:35:46;28.90;53.80
2721;DHT22;1368;49.484;11.112;2022-08-11T09:38:13;28.70;54.10
2721;DHT22;1368;49.484;11.112;2022-08-11T09:41:05;28.80;53.70
2721;DHT22;1368;49.484;11.112;2022-08-11T09:43:32;28.90;52.30
2721;DHT22;1368;49.484;11.112;2022-08-11T09:46:23;28.80;51.70
2721;DHT22;1368;49.484;11.112;2022-08-11T09:48:52;29.00;52.20
2721;DHT22;1368;49.484;11.112;2022-08-11T09:51:21;29.00;52.60
2721;DHT22;1368;49.484;11.112;2022-08-11T09:53:48;29.60;52.00
2721;DHT22;1368;49.484;11.112;2022-08-11T09:56:16;29.50;51.60
2721;DHT22;1368;49.484;11.112;2022-08-11T09:59:01;29.40;51.60
2721;DHT22;1368;49.484;11.112;2022-08-11T10:01:42;29.00;52.20
2721;DHT22;1368;49.484;11.112;2022-08-11T10:04:15;29.20;52.20
2721;DHT22;1368;49.484;11.112;2022-08-11T10:06:44;29.40;51.10
2721;DHT22;1368;49.484;11.112;2022-08-11T10:09:40;28.90;51.50
2721;DHT22;1368;49.484;11.112;2022-08-11T10:12:09;29.20;52.40
2721;DHT22;1368;49.484;11.112;2022-08-11T10:14:45;29.10;51.40
2721;DHT22;1368;49.484;11.112;2022-08-11T10:17:34;29.20;50.90
2721;DHT22;1368;49.484;11.112;2022-08-11T10:20:01;29.70;50.60
2721;DHT22;1368;49.484;11.112;2022-08-11T10:22:28;30.20;49.70
2721;DHT22;1368;49.484;11.112;2022-08-11T10:25:14;30.20;50.00
2721;DHT22;1368;49.484;11.112;2022-08-11T10:27:59;30.30;50.30
2721;DHT22;1368;49.484;11.112;2022-08-11T10:30:28;30.10;50.80
2721;DHT22;1368;49.484;11.112;2022-08-11T10:33:12;30.70;50.50
2721;DHT22;1368;49.484;11.112;2022-08-11T10:35:58;31.10;49.20
2721;DHT22;1368;49.484;11.112;2022-08-11T10:38:25;31.00;49.70
2721;DHT22;1368;49.484;11.112;2022-08-11T10:40:51;31.90;48.50
2721;DHT22;1368;49.484;11.112;2022-08-11T10:43:40;31.20;47.50
2721;DHT22;1368;49.484;11.112;2022-08-11T10:46:09;29.70;49.30
2721;DHT22;1368;49.484;11.112;2022-08-11T10:48:55;29.30;50.00
2721;DHT22;1368;49.484;11.112;2022-08-11T10:51:23;29.20;50.30
2721;DHT22;1368;49.484;11.112;2022-08-11T10:54:07;29.20;50.10
2721;DHT22;1368;49.484;11.112;2022-08-11T10:56:53;29.40;48.80
2721;DHT22;1368;49.484;11.112;2022-08-11T10:59:38;29.30;48.70
2721;DHT22;1368;49.484;11.112;2022-08-11T11:02:05;29.00;49.40
2721;DHT22;1368;49.484;11.112;2022-08-11T11:09:46;28.80;48.80
2721;DHT22;1368;49.484;11.112;2022-08-11T11:12:32;28.80;49.00
2721;DHT22;1368;49.484;11.112;2022-08-11T11:15:19;29.20;48.60
2721;DHT22;1368;49.484;11.112;2022-08-11T11:18:07;29.40;47.20
2721;DHT22;1368;49.484;11.112;2022-08-11T11:20:42;29.60;47.70
2721;DHT22;1368;49.484;11.112;2022-08-11T11:37:23;29.70;48.30
2721;DHT22;1368;49.484;11.112;2022-08-11T11:39:50;30.30;46.80
2721;DHT22;1368;49.484;11.112;2022-08-11T11:42:16;30.30;47.00
2721;DHT22;1368;49.484;11.112;2022-08-11T11:44:44;29.60;47.50
2721;DHT22;1368;49.484;11.112;2022-08-11T11:47:11;29.60;47.90
2721;DHT22;1368;49.484;11.112;2022-08-11T11:49:40;29.70;47.50
2721;DHT22;1368;49.484;11.112;2022-08-11T11:52:15;29.30;48.30
2721;DHT22;1368;49.484;11.112;2022-08-11T11:54:45;29.10;48.80
2721;DHT22;1368;49.484;11.112;2022-08-11T11:57:16;28.90;47.20
2721;DHT22;1368;49.484;11.112;2022-08-11T12:00:07;28.80;48.10
2721;DHT22;1368;49.484;11.112;2022-08-11T12:02:52;29.30;47.90
2721;DHT22;1368;49.484;11.112;2022-08-11T12:05:18;29.30;46.90
2721;DHT22;1368;49.484;11.112;2022-08-11T12:07:45;29.00;47.40
2721;DHT22;1368;49.484;11.112;2022-08-11T12:10:30;29.30;47.60
2721;DHT22;1368;49.484;11.112;2022-08-11T12:12:58;29.20;46.10
2721;DHT22;1368;49.484;11.112;2022-08-11T12:15:46;29.30;46.60
2721;DHT22;1368;49.484;11.112;2022-08-11T12:18:13;29.40;46.30
2721;DHT22;1368;49.484;11.112;2022-08-11T12:20:39;29.20;47.10
2721;DHT22;1368;49.484;11.112;2022-08-11T12:23:05;29.00;47.40
2721;DHT22;1368;49.484;11.112;2022-08-11T12:25:50;29.10;46.30
2721;DHT22;1368;49.484;11.112;2022-08-11T12:28:34;29.30;46.60
2721;DHT22;1368;49.484;11.112;2022-08-11T12:31:00;29.20;46.70
2721;DHT22;1368;49.484;11.112;2022-08-11T12:33:28;29.00;47.10
2721;DHT22;1368;49.484;11.112;2022-08-11T12:35:57;29.20;47.20
2721;DHT22;1368;49.484;11.112;2022-08-11T12:38:23;29.30;47.60
2721;DHT22;1368;49.484;11.112;2022-08-11T12:40:50;29.20;47.50
2721;DHT22;1368;49.484;11.112;2022-08-11T12:43:35;29.00;47.20
2721;DHT22;1368;49.484;11.112;2022-08-11T12:46:28;29.60;46.90
2721;DHT22;1368;49.484;11.112;2022-08-11T12:48:58;29.50;45.80
2721;DHT22;1368;49.484;11.112;2022-08-11T12:51:48;29.10;46.50
2721;DHT22;1368;49.484;11.112;2022-08-11T12:56:59;29.00;46.80
2721;DHT22;1368;49.484;11.112;2022-08-11T12:59:44;29.20;46.30
2721;DHT22;1368;49.484;11.112;2022-08-11T13:02:29;29.20;45.90
2721;DHT22;1368;49.484;11.112;2022-08-11T13:05:15;29.20;46.50
2721;DHT22;1368;49.484;11.112;2022-08-11T13:07:42;29.20;45.30
2721;DHT22;1368;49.484;11.112;2022-08-11T13:10:10;29.00;45.20
2721;DHT22;1368;49.484;11.112;2022-08-11T13:12:37;28.70;43.80
2721;DHT22;1368;49.484;11.112;2022-08-11T13:15:21;28.90;44.80
2721;DHT22;1368;49.484;11.112;2022-08-11T13:17:48;29.00;45.90
2721;DHT22;1368;49.484;11.112;2022-08-11T13:20:21;29.10;45.80
2721;DHT22;1368;49.484;11.112;2022-08-11T13:22:55;29.10;45.60
2721;DHT22;1368;49.484;11.112;2022-08-11T13:25:23;29.20;46.10
2721;DHT22;1368;49.484;11.112;2022-08-11T13:27:52;29.60;45.60
2721;DHT22;1368;49.484;11.112;2022-08-11T13:30:18;29.40;45.50
2721;DHT22;1368;49.484;11.112;2022-08-11T13:33:03;29.20;45.60
2721;DHT22;1368;49.484;11.112;2022-08-11T13:35:32;29.20;45.40
2721;DHT22;1368;49.484;11.112;2022-08-11T13:38:00;29.20;45.30
2721;DHT22;1368;49.484;11.112;2022-08-11T13:40:27;29.30;45.00
2721;DHT22;1368;49.484;11.112;2022-08-11T13:42:53;29.40;44.60
2721;DHT22;1368;49.484;11.112;2022-08-11T13:45:22;29.50;45.00
2721;DHT22;1368;49.484;11.112;2022-08-11T13:47:48;29.40;44.40
2721;DHT22;1368;49.484;11.112;2022-08-11T13:50:16;29.10;45.00
2721;DHT22;1368;49.484;11.112;2022-08-11T13:52:44;29.00;44.40
2721;DHT22;1368;49.484;11.112;2022-08-11T13:55:11;29.30;45.00
2721;DHT22;1368;49.484;11.112;2022-08-11T13:57:52;29.30;44.50
2721;DHT22;1368;49.484;11.112;2022-08-11T14:00:19;29.20;45.20
2721;DHT22;1368;49.484;11.112;2022-08-11T14:02:47;29.20;46.10
2721;DHT22;1368;49.484;11.112;2022-08-11T14:05:17;29.40;45.00
2721;DHT22;1368;49.484;11.112;2022-08-11T14:07:50;29.50;45.60
2721;DHT22;1368;49.484;11.112;2022-08-11T14:10:19;29.50;43.80
2721;DHT22;1368;49.484;11.112;2022-08-11T14:12:52;29.20;44.40
2721;DHT22;1368;49.484;11.112;2022-08-11T14:15:41;29.10;43.90
2721;DHT22;1368;49.484;11.112;2022-08-11T14:18:25;28.80;44.60
2721;DHT22;1368;49.484;11.112;2022-08-11T14:20:54;28.80;45.20
2721;DHT22;1368;49.484;11.112;2022-08-11T14:23:44;29.00;45.50
2721;DHT22;1368;49.484;11.112;2022-08-11T14:26:11;29.20;45.20
2721;DHT22;1368;49.484;11.112;2022-08-11T14:29:02;28.90;45.70
2721;DHT22;1368;49.484;11.112;2022-08-11T14:31:31;29.00;46.10
2721;DHT22;1368;49.484;11.112;2022-08-11T14:34:00;29.00;46.10
2721;DHT22;1368;49.484;11.112;2022-08-11T14:36:30;28.90;45.40
2721;DHT22;1368;49.484;11.112;2022-08-11T14:38:57;28.70;45.50
2721;DHT22;1368;49.484;11.112;2022-08-11T14:41:24;29.00;45.20
2721;DHT22;1368;49.484;11.112;2022-08-11T14:44:09;29.30;44.40
2721;DHT22;1368;49.484;11.112;2022-08-11T14:46:54;29.30;44.40
2721;DHT22;1368;49.484;11.112;2022-08-11T14:49:35;29.30;44.40
2721;DHT22;1368;49.484;11.112;2022-08-11T14:52:09;29.20;44.60
2721;DHT22;1368;49.484;11.112;2022-08-11T14:54:36;29.30;44.90
2721;DHT22;1368;49.484;11.112;2022-08-11T14:57:21;29.30;44.50
2721;DHT22;1368;49.484;11.112;2022-08-11T14:59:49;29.00;44.90
2721;DHT22;1368;49.484;11.112;2022-08-11T15:02:15;28.90;45.00
2721;DHT22;1368;49.484;11.112;2022-08-11T15:05:02;28.70;44.90
2721;DHT22;1368;49.484;11.112;2022-08-11T15:07:29;28.80;45.40
2721;DHT22;1368;49.484;11.112;2022-08-11T15:10:01;28.90;45.20
2721;DHT22;1368;49.484;11.112;2022-08-11T15:12:29;28.90;45.30
2721;DHT22;1368;49.484;11.112;2022-08-11T15:14:56;28.90;45.70
2721;DHT22;1368;49.484;11.112;2022-08-11T15:17:41;29.00;44.90
2721;DHT22;1368;49.484;11.112;2022-08-11T15:20:14;29.00;45.10
2721;DHT22;1368;49.484;11.112;2022-08-11T15:22:59;29.20;45.20
2721;DHT22;1368;49.484;11.112;2022-08-11T15:25:47;29.10;45.10
2721;DHT22;1368;49.484;11.112;2022-08-11T15:28:14;28.90;45.60
2721;DHT22;1368;49.484;11.112;2022-08-11T15:31:01;28.70;45.70
2721;DHT22;1368;49.484;11.112;2022-08-11T15:33:50;28.70;45.70
2721;DHT22;1368;49.484;11.112;2022-08-11T15:36:36;28.80;45.80
2721;DHT22;1368;49.484;11.112;2022-08-11T15:39:27;28.80;46.10
2721;DHT22;1368;49.484;11.112;2022-08-11T15:42:03;28.80;45.60
2721;DHT22;1368;49.484;11.112;2022-08-11T15:44:53;28.60;45.90
2721;DHT22;1368;49.484;11.112;2022-08-11T15:47:47;28.80;46.10
2721;DHT22;1368;49.484;11.112;2022-08-11T15:50:17;28.80;45.80
2721;DHT22;1368;49.484;11.112;2022-08-11T15:52:55;28.60;46.20
2721;DHT22;1368;49.484;11.112;2022-08-11T15:55:23;28.70;46.10
2721;DHT22;1368;49.484;11.112;2022-08-11T15:57:51;28.80;45.90
2721;DHT22;1368;49.484;11.112;2022-08-11T16:00:37;28.90;46.10
2721;DHT22;1368;49.484;11.112;2022-08-11T16:03:23;28.60;46.20
2721;DHT22;1368;49.484;11.112;2022-08-11T16:06:08;28.50;46.60
2721;DHT22;1368;49.484;11.112;2022-08-11T16:08:36;28.50;46.90
2721;DHT22;1368;49.484;11.112;2022-08-11T16:11:05;28.30;46.60
2721;DHT22;1368;49.484;11.112;2022-08-11T16:13:32;28.40;46.90
2721;DHT22;1368;49.484;11.112;2022-08-11T16:16:00;28.30;47.20
2721;DHT22;1368;49.484;11.112;2022-08-11T16:18:50;28.30;46.80
2721;DHT22;1368;49.484;11.112;2022-08-11T16:21:22;28.40;46.80
2721;DHT22;1368;49.484;11.112;2022-08-11T16:23:51;28.70;46.90
2721;DHT22;1368;49.484;11.112;2022-08-11T16:26:20;28.80;47.00
2721;DHT22;1368;49.484;11.112;2022-08-11T16:28:56;28.60;46.80
2721;DHT22;1368;49.484;11.112;2022-08-11T16:31:23;28.60;47.10
2721;DHT22;1368;49.484;11.112;2022-08-11T16:33:51;28.70;47.20
2721;DHT22;1368;49.484;11.112;2022-08-11T16:36:19;28.60;47.40
2721;DHT22;1368;49.484;11.112;2022-08-11T16:39:05;28.60;47.20
2721;DHT22;1368;49.484;11.112;2022-08-11T16:41:33;28.50;47.50
2721;DHT22;1368;49.484;11.112;2022-08-11T16:44:19;28.60;47.50
2721;DHT22;1368;49.484;11.112;2022-08-11T16:47:11;28.50;47.70
2721;DHT22;1368;49.484;11.112;2022-08-11T16:49:51;28.60;48.20
2721;DHT22;1368;49.484;11.112;2022-08-11T16:52:18;28.50;47.90
2721;DHT22;1368;49.484;11.112;2022-08-11T16:54:44;28.50;48.70
2721;DHT22;1368;49.484;11.112;2022-08-11T16:57:33;28.50;48.10
2721;DHT22;1368;49.484;11.112;2022-08-11T17:00:17;28.30;48.00
2721;DHT22;1368;49.484;11.112;2022-08-11T17:02:50;28.10;48.30
2721;DHT22;1368;49.484;11.112;2022-08-11T17:05:37;28.20;48.60
2721;DHT22;1368;49.484;11.112;2022-08-11T17:08:46;28.10;48.70
2721;DHT22;1368;49.484;11.112;2022-08-11T17:11:38;27.80;48.70
2721;DHT22;1368;49.484;11.112;2022-08-11T17:14:28;27.90;48.90
2721;DHT22;1368;49.484;11.112;2022-08-11T17:16:57;27.90;49.20
2721;DHT22;1368;49.484;11.112;2022-08-11T17:19:25;28.00;49.00
2721;DHT22;1368;49.484;11.112;2022-08-11T17:21:53;28.00;48.80
2721;DHT22;1368;49.484;11.112;2022-08-11T17:24:44;27.80;49.30
2721;DHT22;1368;49.484;11.112;2022-08-11T17:27:14;27.80;49.60
2721;DHT22;1368;49.484;11.112;2022-08-11T17:29:52;27.60;49.60
2721;DHT22;1368;49.484;11.112;2022-08-11T17:32:23;27.60;50.00
2721;DHT22;1368;49.484;11.112;2022-08-11T17:35:10;27.60;49.90
2721;DHT22;1368;49.484;11.112;2022-08-11T17:38:14;27.50;50.10
2721;DHT22;1368;49.484;11.112;2022-08-11T17:40:48;27.60;50.10
2721;DHT22;1368;49.484;11.112;2022-08-11T17:43:33;27.50;50.50
2721;DHT22;1368;49.484;11.112;2022-08-11T17:46:18;27.30;50.30
2721;DHT22;1368;49.484;11.112;2022-08-11T17:49:04;27.40;50.60
2721;DHT22;1368;49.484;11.112;2022-08-11T17:51:34;27.50;50.20
2721;DHT22;1368;49.484;11.112;2022-08-11T17:54:20;27.50;50.30
2721;DHT22;1368;49.484;11.112;2022-08-11T17:57:07;28.90;51.60
2721;DHT22;1368;49.484;11.112;2022-08-11T17:59:53;27.30;50.90
2721;DHT22;1368;49.484;11.112;2022-08-11T18:02:39;27.00;51.00
2721;DHT22;1368;49.484;11.112;2022-08-11T18:05:29;26.90;51.20
2721;DHT22;1368;49.484;11.112;2022-08-11T18:07:57;26.70;51.50
2721;DHT22;1368;49.484;11.112;2022-08-11T18:10:44;26.70;52.00
2721;DHT22;1368;49.484;11.112;2022-08-11T18:13:31;26.60;51.40
2721;DHT22;1368;49.484;11.112;2022-08-11T18:16:17;26.50;51.50
2721;DHT22;1368;49.484;11.112;2022-08-11T18:19:02;26.30;51.70
2721;DHT22;1368;49.484;11.112;2022-08-11T18:21:47;26.20;51.90
2721;DHT22;1368;49.484;11.112;2022-08-11T18:24:37;26.20;52.10
2721;DHT22;1368;49.484;11.112;2022-08-11T18:27:25;26.20;52.20
2721;DHT22;1368;49.484;11.112;2022-08-11T18:30:11;26.20;52.00
2721;DHT22;1368;49.484;11.112;2022-08-11T18:33:00;26.10;52.10
2721;DHT22;1368;49.484;11.112;2022-08-11T18:35:52;26.10;52.10
2721;DHT22;1368;49.484;11.112;2022-08-11T18:38:38;26.10;52.00
2721;DHT22;1368;49.484;11.112;2022-08-11T18:41:24;26.10;52.00
2721;DHT22;1368;49.484;11.112;2022-08-11T18:44:12;26.00;52.20
2721;DHT22;1368;49.484;11.112;2022-08-11T18:47:00;25.90;52.50
2721;DHT22;1368;49.484;11.112;2022-08-11T18:49:46;25.80;52.40
2721;DHT22;1368;49.484;11.112;2022-08-11T18:52:32;25.60;52.90
2721;DHT22;1368;49.484;11.112;2022-08-11T18:55:18;25.50;52.80
2721;DHT22;1368;49.484;11.112;2022-08-11T18:58:04;25.60;52.80
2721;DHT22;1368;49.484;11.112;2022-08-11T19:00:56;25.60;52.80
2721;DHT22;1368;49.484;11.112;2022-08-11T19:03:43;25.50;53.00
2721;DHT22;1368;49.484;11.112;2022-08-11T19:06:30;25.40;53.00
2721;DHT22;1368;49.484;11.112;2022-08-11T19:09:16;25.30;53.20
2721;DHT22;1368;49.484;11.112;2022-08-11T19:12:05;25.30;53.40
2721;DHT22;1368;49.484;11.112;2022-08-11T19:14:52;25.40;53.40
2721;DHT22;1368;49.484;11.112;2022-08-11T19:17:41;25.50;53.40
2721;DHT22;1368;49.484;11.112;2022-08-11T19:20:29;25.60;53.40
2721;DHT22;1368;49.484;11.112;2022-08-11T19:23:18;25.60;53.60
2721;DHT22;1368;49.484;11.112;2022-08-11T19:26:03;25.40;54.10
2721;DHT22;1368;49.484;11.112;2022-08-11T19:28:49;25.20;54.50
2721;DHT22;1368;49.484;11.112;2022-08-11T19:31:36;25.00;55.20
2721;DHT22;1368;49.484;11.112;2022-08-11T19:34:23;25.00;55.40
2721;DHT22;1368;49.484;11.112;2022-08-11T19:37:09;24.80;55.90
2721;DHT22;1368;49.484;11.112;2022-08-11T19:39:59;24.50;56.30
2721;DHT22;1368;49.484;11.112;2022-08-11T19:42:44;24.10;56.70
2721;DHT22;1368;49.484;11.112;2022-08-11T19:45:29;23.60;56.80
2721;DHT22;1368;49.484;11.112;2022-08-11T19:48:14;23.30;57.40